Ultra Dynamic — 9V9499 — position and weather

sailwx.info

Track history (hours):
 
Tides and Currents Weather Stations Pressure Air Temp Water Temp Dewpoint Dewpoint Depression Visibility Wind Speed Wind Dir Waves Ship Positions

Ultra Dynamic

Last reported at 2018-Jan-20 12:09 UTC. Time now 2018-Jan-23 10:04 UTC.
Position N 01°18' E 103°21'.

Length 199 m; draft 12.8 m.

Type: Cargo ship. MMSI: 566157000.

Date/timePositionNaut miles runAvg speedWind from/ knotsBaromVisibWave heightAir tempDewpointWater temp
2018-Jan-20 12:09N 01°18' E 103°21'214.3
2018-Jan-20 11:59N 01°16' E 103°23'713.9
2018-Jan-20 11:30N 01°13' E 103°29'612.7
2018-Jan-20 10:59N 01°12' E 103°35'510.2
2018-Jan-20 10:30N 01°11' E 103°40'5 9.8
2018-Jan-20 09:59N 01°09' E 103°45'4 8.4
2018-Jan-20 09:30N 01°11' E 103°48'4 7.2
2018-Jan-20 09:00N 01°12' E 103°52'4 8.4
2018-Jan-20 08:30N 01°14' E 103°55'3 6.0
2018-Jan-20 07:59N 01°17' E 103°57'0 0.3
2018-Jan-20 06:27N 01°17' E 103°57'0 0.1
2018-Jan-20 05:29N 01°17' E 103°57'0 0.1
2018-Jan-20 04:47N 01°17' E 103°57'0 0.0
2018-Jan-20 02:14N 01°17' E 103°57'0 0.0
2018-Jan-20 01:38N 01°17' E 103°57'0 0.0
2018-Jan-20 01:23N 01°17' E 103°57'0 0.0
2018-Jan-20 00:50N 01°17' E 103°57'0 0.0
2018-Jan-19 23:56N 01°17' E 103°57'0 0.0
2018-Jan-19 22:53N 01°17' E 103°57'0 0.0
2018-Jan-19 22:23N 01°17' E 103°57'0 0.0
2018-Jan-19 21:56N 01°17' E 103°57'0 0.0
2018-Jan-19 21:08N 01°17' E 103°57'0 0.0
2018-Jan-19 20:47N 01°17' E 103°57'0 0.0
2018-Jan-19 20:17N 01°17' E 103°57'0 0.0
2018-Jan-19 19:23N 01°17' E 103°57'0 0.1
2018-Jan-19 17:45N 01°17' E 103°57'0 1.4
2018-Jan-19 17:26N 01°17' E 103°57'3 6.0
2018-Jan-19 16:52N 01°16' E 104°01'511.4
2018-Jan-19 16:27N 01°17' E 104°05'  
Track history (hours):
 
Tides and Currents Weather Stations Pressure Air Temp Water Temp Dewpoint Dewpoint Depression Visibility Wind Speed Wind Dir Waves Ship Positions

Ultra Dynamic

Last reported at 2018-Jan-20 12:09 UTC. Time now 2018-Jan-23 10:04 UTC.
Position N 01°18' E 103°21'.

Length 199 m; draft 12.8 m.

Type: Cargo ship. MMSI: 566157000.

Date/timePositionNaut miles runAvg speedWind from/ knotsBaromVisibWave heightAir tempDewpointWater temp
2018-Jan-20 12:09N 01°18' E 103°21'214.3
2018-Jan-20 11:59N 01°16' E 103°23'713.9
2018-Jan-20 11:30N 01°13' E 103°29'612.7
2018-Jan-20 10:59N 01°12' E 103°35'510.2
2018-Jan-20 10:30N 01°11' E 103°40'5 9.8
2018-Jan-20 09:59N 01°09' E 103°45'4 8.4
2018-Jan-20 09:30N 01°11' E 103°48'4 7.2
2018-Jan-20 09:00N 01°12' E 103°52'4 8.4
2018-Jan-20 08:30N 01°14' E 103°55'3 6.0
2018-Jan-20 07:59N 01°17' E 103°57'0 0.3
2018-Jan-20 06:27N 01°17' E 103°57'0 0.1
2018-Jan-20 05:29N 01°17' E 103°57'0 0.1
2018-Jan-20 04:47N 01°17' E 103°57'0 0.0
2018-Jan-20 02:14N 01°17' E 103°57'0 0.0
2018-Jan-20 01:38N 01°17' E 103°57'0 0.0
2018-Jan-20 01:23N 01°17' E 103°57'0 0.0
2018-Jan-20 00:50N 01°17' E 103°57'0 0.0
2018-Jan-19 23:56N 01°17' E 103°57'0 0.0
2018-Jan-19 22:53N 01°17' E 103°57'0 0.0
2018-Jan-19 22:23N 01°17' E 103°57'0 0.0
2018-Jan-19 21:56N 01°17' E 103°57'0 0.0
2018-Jan-19 21:08N 01°17' E 103°57'0 0.0
2018-Jan-19 20:47N 01°17' E 103°57'0 0.0
2018-Jan-19 20:17N 01°17' E 103°57'0 0.0
2018-Jan-19 19:23N 01°17' E 103°57'0 0.1
2018-Jan-19 17:45N 01°17' E 103°57'0 1.4
2018-Jan-19 17:26N 01°17' E 103°57'3 6.0
2018-Jan-19 16:52N 01°16' E 104°01'511.4
2018-Jan-19 16:27N 01°17' E 104°05'  

Dump ship's entire track history